| time (UTC) | temp C | wind direction | speed KPH | gust KPH | rain 1hr cm | rain 24hr cm | rain mn cm | humidity % | barometer mb |
| 20260505171522 | 13 | 229 | 4.8 | 12.9 | 0.00 | 0.00 | 0.00 | 82 | 1016.7 |
| 20260505170032 | 13 | 200 | 6.4 | 14.5 | 0.00 | 0.00 | 0.00 | 81 | 1016.7 |
| 20260505164512 | 13 | 209 | 6.4 | 11.3 | 0.00 | 0.00 | 0.00 | 78 | 1016.5 |
| 20260505163018 | 13 | 233 | 8.0 | 12.9 | 0.00 | 0.00 | 0.00 | 77 | 1016.5 |
| 20260505161526 | 13 | 250 | 0.0 | 4.8 | 0.00 | 0.00 | 0.00 | 76 | 1016.5 |
| 20260505153003 | 13 | 311 | 0.0 | 4.8 | 0.00 | 0.00 | 0.00 | 78 | 1016.4 |
| 20260505151503 | 13 | 285 | 0.0 | 4.8 | 0.00 | 0.00 | 0.00 | 79 | 1016.1 |
| 20260505124506 | 12 | 344 | 0.0 | 3.2 | 0.00 | 0.00 | 0.00 | 79 | 1015.3 |
| 20260505123006 | 12 | 294 | 0.0 | 0.0 | 0.00 | 0.00 | 0.00 | 78 | 1015.4 |
| 20260505121504 | 12 | 280 | 0.0 | 4.8 | 0.00 | 0.00 | 0.00 | 78 | 1015.5 |
| 20260505120008 | 12 | 327 | 1.6 | 4.8 | 0.00 | 0.00 | 0.00 | 78 | 1015.4 |
| 20260505114508 | 12 | 352 | 0.0 | 3.2 | 0.00 | 0.00 | 0.00 | 78 | 1015.2 |
| 20260505113006 | 12 | 309 | 0.0 | 4.8 | 0.00 | 0.00 | 0.00 | 79 | 1015.3 |
| 20260505111507 | 12 | 277 | 0.0 | 6.4 | 0.00 | 0.00 | 0.00 | 79 | 1015.3 |
| 20260505101513 | 12 | 300 | 0.0 | 8.0 | 0.00 | 0.00 | 0.00 | 80 | 1015.1 |
| 20260505100012 | 12 | 26 | 0.0 | 4.8 | 0.00 | 0.00 | 0.00 | 80 | 1015.4 |
| 20260505094519 | 12 | 347 | 0.0 | 4.8 | 0.00 | 0.00 | 0.00 | 81 | 1015.4 |
| 20260505093012 | 12 | 300 | 0.0 | 4.8 | 0.00 | 0.00 | 0.00 | 81 | 1015.4 |
| 20260505091513 | 12 | 305 | 0.0 | 3.2 | 0.00 | 0.00 | 0.00 | 81 | 1015.6 |
| 20260505090011 | 12 | 338 | 0.0 | 4.8 | 0.00 | 0.00 | 0.00 | 81 | 1015.8 |
| 20260505084512 | 12 | 49 | 0.0 | 9.7 | 0.00 | 0.00 | 0.00 | 81 | 1015.7 |
| 20260505083016 | 12 | 302 | 0.0 | 4.8 | 0.00 | 0.00 | 0.00 | 81 | 1015.8 |
| 20260505081512 | 12 | 294 | 0.0 | 0.0 | 0.00 | 0.00 | 0.00 | 81 | 1015.9 |
| 20260505080014 | 12 | 302 | 0.0 | 0.0 | 0.00 | 0.00 | 0.00 | 81 | 1016.0 |
| 20260505074510 | 12 | 302 | 0.0 | 0.0 | 0.00 | 0.00 | 0.00 | 81 | 1016.0 |
| 20260505073027 | 12 | 302 | 0.0 | 0.0 | 0.00 | 0.00 | 0.00 | 82 | 1015.9 |
| 20260505071515 | 12 | 294 | 0.0 | 3.2 | 0.00 | 0.00 | 0.00 | 82 | 1015.8 |
| 20260505070027 | 12 | 20 | 0.0 | 3.2 | 0.00 | 0.00 | 0.00 | 83 | 1015.9 |
| 20260505064508 | 12 | 116 | 0.0 | 0.0 | 0.00 | 0.00 | 0.00 | 83 | 1015.6 |
| 20260505063014 | 13 | 119 | 0.0 | 0.0 | 0.00 | 0.00 | 0.00 | 83 | 1015.5 |
| 20260505061523 | 13 | 89 | 0.0 | 0.0 | 0.00 | 0.00 | 0.00 | 83 | 1015.5 |
| 20260505060020 | 13 | 39 | 0.0 | 0.0 | 0.00 | 0.00 | 0.00 | 83 | 1015.6 |
| 20260505054520 | 13 | 61 | 0.0 | 3.2 | 0.00 | 0.00 | 0.00 | 82 | 1015.8 |
| 20260505053020 | 13 | 340 | 0.0 | 3.2 | 0.00 | 0.00 | 0.00 | 81 | 1015.9 |
| 20260505051520 | 13 | 19 | 0.0 | 4.8 | 0.00 | 0.00 | 0.00 | 81 | 1016.0 |
| 20260505041532 | 13 | 244 | 1.6 | 6.4 | 0.00 | 0.00 | 0.00 | 80 | 1015.6 |
| 20260505040025 | 13 | 196 | 0.0 | 6.4 | 0.00 | 0.00 | 0.00 | 80 | 1015.3 |
| 20260505034525 | 13 | 225 | 4.8 | 12.9 | 0.00 | 0.00 | 0.00 | 79 | 1015.2 |
| 20260505033023 | 13 | 259 | 1.6 | 11.3 | 0.00 | 0.00 | 0.00 | 79 | 1015.0 |
| 20260505031535 | 13 | 201 | 1.6 | 6.4 | 0.00 | 0.00 | 0.00 | 79 | 1015.1 |
| 20260505030024 | 13 | 230 | 4.8 | 14.5 | 0.00 | 0.00 | 0.00 | 79 | 1015.1 |
| 20260505024520 | 14 | 228 | 6.4 | 12.9 | 0.00 | 0.00 | 0.00 | 78 | 1015.1 |
| 20260505023023 | 15 | 211 | 4.8 | 14.5 | 0.00 | 0.00 | 0.00 | 77 | 1014.8 |
| 20260505021522 | 15 | 221 | 3.2 | 11.3 | 0.00 | 0.00 | 0.00 | 75 | 1014.6 |
| 20260505020022 | 15 | 224 | 6.4 | 22.5 | 0.00 | 0.00 | 0.00 | 73 | 1014.7 |
| 20260505014532 | 16 | 248 | 6.4 | 14.5 | 0.00 | 0.00 | 0.00 | 71 | 1014.7 |
| 20260505013022 | 16 | 205 | 6.4 | 12.9 | 0.00 | 0.00 | 0.00 | 69 | 1014.9 |
| 20260505011524 | 16 | 201 | 8.0 | 16.1 | 0.00 | 0.00 | 0.00 | 67 | 1015.0 |
| 20260505010007 | 16 | 188 | 6.4 | 20.9 | 0.00 | 0.00 | 0.00 | 68 | 1015.3 |
| 20260505004527 | 16 | 211 | 8.0 | 25.7 | 0.00 | 0.00 | 0.00 | 72 | 1015.5 |
| 20260505003018 | 16 | 205 | 6.4 | 20.9 | 0.00 | 0.00 | 0.00 | 70 | 1015.5 |
| 20260505001522 | 16 | 219 | 9.7 | 22.5 | 0.00 | 0.00 | 0.00 | 71 | 1015.5 |
| 20260505000030 | 16 | 213 | 8.0 | 19.3 | 0.00 | 0.00 | 0.00 | 75 | 1015.3 |
| 20260504234510 | 16 | 200 | 14.5 | 29.0 | 0.00 | 0.00 | 0.00 | 75 | 1015.4 |
| 20260504233026 | 16 | 234 | 12.9 | 25.7 | 0.00 | 0.00 | 0.00 | 75 | 1015.5 |
| 20260504231528 | 16 | 225 | 16.1 | 24.1 | 0.00 | 0.00 | 0.00 | 72 | 1015.6 |
| 20260504230024 | 16 | 212 | 12.9 | 25.7 | 0.00 | 0.00 | 0.00 | 74 | 1015.7 |
| 20260504224512 | 16 | 224 | 14.5 | 24.1 | 0.00 | 0.00 | 0.00 | 74 | 1015.6 |
| 20260504223025 | 16 | 254 | 11.3 | 22.5 | 0.00 | 0.00 | 0.00 | 77 | 1015.8 |
| 20260504221517 | 15 | 246 | 14.5 | 32.2 | 0.00 | 0.00 | 0.00 | 80 | 1015.9 |
| 20260504220027 | 16 | 221 | 17.7 | 32.2 | 0.00 | 0.00 | 0.00 | 76 | 1016.1 |
| 20260504214527 | 16 | 234 | 14.5 | 29.0 | 0.00 | 0.00 | 0.00 | 76 | 1016.1 |
| 20260504213021 | 16 | 234 | 16.1 | 27.4 | 0.00 | 0.00 | 0.00 | 76 | 1016.3 |
| 20260504211533 | 16 | 254 | 16.1 | 27.4 | 0.00 | 0.00 | 0.00 | 78 | 1016.5 |
| 20260504210027 | 15 | 218 | 14.5 | 24.1 | 0.00 | 0.00 | 0.00 | 78 | 1016.5 |
| 20260504204535 | 16 | 246 | 12.9 | 25.7 | 0.00 | 0.00 | 0.00 | 78 | 1016.5 |
| 20260504203028 | 16 | 270 | 12.9 | 27.4 | 0.00 | 0.00 | 0.00 | 76 | 1016.6 |
| 20260504201513 | 16 | 252 | 8.0 | 20.9 | 0.00 | 0.00 | 0.00 | 78 | 1016.6 |
| 20260504200018 | 16 | 242 | 9.7 | 17.7 | 0.00 | 0.00 | 0.00 | 78 | 1016.7 |
| 20260504194529 | 16 | 220 | 8.0 | 17.7 | 0.00 | 0.00 | 0.00 | 80 | 1016.6 |
| 20260504193026 | 15 | 212 | 12.9 | 20.9 | 0.00 | 0.00 | 0.00 | 78 | 1016.7 |
| 20260504191528 | 15 | 248 | 8.0 | 22.5 | 0.00 | 0.00 | 0.00 | 79 | 1016.8 |
| 20260504190016 | 15 | 206 | 14.5 | 20.9 | 0.00 | 0.00 | 0.00 | 79 | 1016.7 |
| 20260504184520 | 15 | 183 | 8.0 | 17.7 | 0.00 | 0.00 | 0.00 | 80 | 1016.8 |
| 20260504183007 | 15 | 207 | 9.7 | 16.1 | 0.00 | 0.00 | 0.00 | 78 | 1016.8 |
| 20260504181528 | 15 | 205 | 8.0 | 14.5 | 0.00 | 0.00 | 0.00 | 79 | 1016.7 |
| 20260504180027 | 15 | 217 | 6.4 | 14.5 | 0.00 | 0.00 | 0.00 | 79 | 1016.6 |
| 20260504174518 | 14 | 237 | 8.0 | 16.1 | 0.00 | 0.00 | 0.00 | 81 | 1016.4 |
| 20260504173020 | 14 | 215 | 8.0 | 14.5 | 0.00 | 0.00 | 0.00 | 80 | 1016.1 |